sensor_id;sensor_type;location;lat;lon;timestamp;pressure;altitude;pressure_sealevel;temperature;humidity
70559;BME280;58108;48.094;11.838;2024-02-26T00:00:10;93636.72;;;1.66;100.00
70559;BME280;58108;48.094;11.838;2024-02-26T00:02:36;93634.81;;;1.57;100.00
70559;BME280;58108;48.094;11.838;2024-02-26T00:05:07;93630.31;;;1.47;100.00
70559;BME280;58108;48.094;11.838;2024-02-26T00:07:33;93631.97;;;1.48;100.00
70559;BME280;58108;48.094;11.838;2024-02-26T00:09:59;93625.78;;;1.51;100.00
70559;BME280;58108;48.094;11.838;2024-02-26T00:12:25;93631.63;;;1.53;100.00
70559;BME280;58108;48.094;11.838;2024-02-26T00:14:50;93636.78;;;1.53;100.00
70559;BME280;58108;48.094;11.838;2024-02-26T00:17:18;93635.53;;;1.59;100.00
70559;BME280;58108;48.094;11.838;2024-02-26T00:19:43;93628.16;;;1.30;100.00
70559;BME280;58108;48.094;11.838;2024-02-26T00:22:09;93631.50;;;1.43;100.00
70559;BME280;58108;48.094;11.838;2024-02-26T00:24:34;93625.66;;;1.53;100.00
70559;BME280;58108;48.094;11.838;2024-02-26T00:27:00;93624.03;;;1.52;100.00
70559;BME280;58108;48.094;11.838;2024-02-26T00:29:25;93633.13;;;1.44;100.00
70559;BME280;58108;48.094;11.838;2024-02-26T00:31:51;93627.31;;;1.29;100.00
70559;BME280;58108;48.094;11.838;2024-02-26T00:34:16;93632.81;;;1.25;100.00
70559;BME280;58108;48.094;11.838;2024-02-26T00:36:42;93624.66;;;1.06;100.00
70559;BME280;58108;48.094;11.838;2024-02-26T00:39:08;93616.06;;;1.30;100.00
70559;BME280;58108;48.094;11.838;2024-02-26T00:41:38;93622.94;;;1.18;100.00
70559;BME280;58108;48.094;11.838;2024-02-26T00:44:03;93610.31;;;1.27;100.00
70559;BME280;58108;48.094;11.838;2024-02-26T00:46:29;93605.94;;;1.16;100.00
70559;BME280;58108;48.094;11.838;2024-02-26T00:48:54;93611.00;;;1.17;100.00
70559;BME280;58108;48.094;11.838;2024-02-26T00:51:20;93612.25;;;1.12;100.00
70559;BME280;58108;48.094;11.838;2024-02-26T00:53:45;93609.69;;;1.12;100.00
70559;BME280;58108;48.094;11.838;2024-02-26T00:56:11;93610.44;;;1.01;100.00
70559;BME280;58108;48.094;11.838;2024-02-26T00:58:36;93612.16;;;0.89;100.00
70559;BME280;58108;48.094;11.838;2024-02-26T01:01:02;93610.38;;;0.89;100.00
70559;BME280;58108;48.094;11.838;2024-02-26T01:03:28;93603.09;;;0.83;100.00
70559;BME280;58108;48.094;11.838;2024-02-26T01:05:54;93612.94;;;0.65;100.00
70559;BME280;58108;48.094;11.838;2024-02-26T01:08:19;93609.03;;;0.59;100.00
70559;BME280;58108;48.094;11.838;2024-02-26T01:10:45;93614.63;;;0.90;100.00
70559;BME280;58108;48.094;11.838;2024-02-26T01:13:10;93620.06;;;0.86;100.00
70559;BME280;58108;48.094;11.838;2024-02-26T01:15:36;93616.00;;;0.70;100.00
70559;BME280;58108;48.094;11.838;2024-02-26T01:18:01;93617.66;;;0.71;100.00
70559;BME280;58108;48.094;11.838;2024-02-26T01:20:27;93613.00;;;0.76;100.00
70559;BME280;58108;48.094;11.838;2024-02-26T01:22:52;93610.38;;;0.65;100.00
70559;BME280;58108;48.094;11.838;2024-02-26T01:25:18;93612.28;;;0.74;100.00
70559;BME280;58108;48.094;11.838;2024-02-26T01:27:43;93614.09;;;0.61;100.00
70559;BME280;58108;48.094;11.838;2024-02-26T01:30:10;93615.38;;;0.79;100.00
70559;BME280;58108;48.094;11.838;2024-02-26T01:32:36;93620.81;;;0.88;100.00
70559;BME280;58108;48.094;11.838;2024-02-26T01:35:02;93616.56;;;0.62;100.00
70559;BME280;58108;48.094;11.838;2024-02-26T01:37:32;93630.94;;;0.15;100.00
70559;BME280;58108;48.094;11.838;2024-02-26T01:39:58;93622.41;;;0.14;100.00
70559;BME280;58108;48.094;11.838;2024-02-26T01:42:23;93631.25;;;-0.16;100.00
70559;BME280;58108;48.094;11.838;2024-02-26T01:44:49;93626.38;;;-0.47;100.00
70559;BME280;58108;48.094;11.838;2024-02-26T01:47:14;93631.41;;;-0.58;100.00
70559;BME280;58108;48.094;11.838;2024-02-26T01:49:40;93629.66;;;-0.58;100.00
70559;BME280;58108;48.094;11.838;2024-02-26T01:52:08;93632.97;;;-0.56;100.00
70559;BME280;58108;48.094;11.838;2024-02-26T01:54:35;93622.84;;;-0.72;100.00
70559;BME280;58108;48.094;11.838;2024-02-26T01:57:02;93619.31;;;-0.84;100.00
70559;BME280;58108;48.094;11.838;2024-02-26T01:59:29;93621.22;;;-1.00;100.00
70559;BME280;58108;48.094;11.838;2024-02-26T02:01:57;93612.47;;;-1.25;100.00
70559;BME280;58108;48.094;11.838;2024-02-26T02:04:24;93612.38;;;-1.24;100.00
70559;BME280;58108;48.094;11.838;2024-02-26T02:06:50;93617.28;;;-1.06;100.00
70559;BME280;58108;48.094;11.838;2024-02-26T02:09:17;93623.16;;;-1.04;100.00
70559;BME280;58108;48.094;11.838;2024-02-26T02:11:43;93620.06;;;-0.69;100.00
70559;BME280;58108;48.094;11.838;2024-02-26T02:14:10;93616.13;;;-0.87;100.00
70559;BME280;58108;48.094;11.838;2024-02-26T02:16:35;93615.63;;;-1.34;100.00
70559;BME280;58108;48.094;11.838;2024-02-26T02:19:01;93612.06;;;-1.46;100.00
70559;BME280;58108;48.094;11.838;2024-02-26T02:21:26;93607.41;;;-1.69;100.00
70559;BME280;58108;48.094;11.838;2024-02-26T02:23:52;93601.13;;;-1.63;100.00
70559;BME280;58108;48.094;11.838;2024-02-26T02:26:18;93602.41;;;-1.70;100.00
70559;BME280;58108;48.094;11.838;2024-02-26T02:28:44;93601.06;;;-1.90;100.00
70559;BME280;58108;48.094;11.838;2024-02-26T02:31:11;93600.66;;;-1.70;100.00
70559;BME280;58108;48.094;11.838;2024-02-26T02:33:37;93594.97;;;-1.60;100.00
70559;BME280;58108;48.094;11.838;2024-02-26T02:36:03;93600.34;;;-1.65;100.00
70559;BME280;58108;48.094;11.838;2024-02-26T02:38:29;93592.06;;;-1.83;100.00
70559;BME280;58108;48.094;11.838;2024-02-26T02:40:56;93591.88;;;-1.80;100.00
70559;BME280;58108;48.094;11.838;2024-02-26T02:43:21;93592.59;;;-1.93;100.00
70559;BME280;58108;48.094;11.838;2024-02-26T02:45:47;93594.34;;;-1.79;100.00
70559;BME280;58108;48.094;11.838;2024-02-26T02:48:12;93593.84;;;-1.56;100.00
70559;BME280;58108;48.094;11.838;2024-02-26T02:50:38;93589.19;;;-1.22;100.00
70559;BME280;58108;48.094;11.838;2024-02-26T02:53:03;93593.47;;;-0.95;100.00
70559;BME280;58108;48.094;11.838;2024-02-26T02:55:29;93588.03;;;-0.90;100.00
70559;BME280;58108;48.094;11.838;2024-02-26T02:57:54;93583.97;;;-0.80;100.00
70559;BME280;58108;48.094;11.838;2024-02-26T03:00:20;93584.06;;;-0.81;100.00
70559;BME280;58108;48.094;11.838;2024-02-26T03:02:48;93585.69;;;-0.80;100.00
70559;BME280;58108;48.094;11.838;2024-02-26T03:05:14;93594.16;;;-1.06;100.00
70559;BME280;58108;48.094;11.838;2024-02-26T03:07:40;93600.47;;;-1.25;100.00
70559;BME280;58108;48.094;11.838;2024-02-26T03:10:06;93599.28;;;-1.75;100.00
70559;BME280;58108;48.094;11.838;2024-02-26T03:12:33;93589.00;;;-1.61;100.00
70559;BME280;58108;48.094;11.838;2024-02-26T03:14:59;93592.72;;;-1.38;100.00
70559;BME280;58108;48.094;11.838;2024-02-26T03:17:28;93588.28;;;-1.63;100.00
70559;BME280;58108;48.094;11.838;2024-02-26T03:19:54;93591.50;;;-1.74;100.00
70559;BME280;58108;48.094;11.838;2024-02-26T03:22:20;93595.91;;;-1.34;100.00
70559;BME280;58108;48.094;11.838;2024-02-26T03:24:46;93592.72;;;-1.38;100.00
70559;BME280;58108;48.094;11.838;2024-02-26T03:27:12;93589.22;;;-1.93;100.00
70559;BME280;58108;48.094;11.838;2024-02-26T03:29:38;93588.03;;;-1.87;100.00
70559;BME280;58108;48.094;11.838;2024-02-26T03:32:04;93581.19;;;-1.87;100.00
70559;BME280;58108;48.094;11.838;2024-02-26T03:34:30;93570.44;;;-1.79;100.00
70559;BME280;58108;48.094;11.838;2024-02-26T03:36:56;93569.22;;;-1.73;100.00
70559;BME280;58108;48.094;11.838;2024-02-26T03:39:21;93570.88;;;-1.72;100.00
70559;BME280;58108;48.094;11.838;2024-02-26T03:41:48;93572.41;;;-1.70;100.00
70559;BME280;58108;48.094;11.838;2024-02-26T03:44:14;93582.19;;;-1.47;100.00
70559;BME280;58108;48.094;11.838;2024-02-26T03:46:40;93579.97;;;-1.81;100.00
70559;BME280;58108;48.094;11.838;2024-02-26T03:49:08;93576.56;;;-1.96;100.00
70559;BME280;58108;48.094;11.838;2024-02-26T03:51:33;93576.03;;;-1.87;100.00
70559;BME280;58108;48.094;11.838;2024-02-26T03:53:59;93582.50;;;-1.67;100.00
70559;BME280;58108;48.094;11.838;2024-02-26T03:56:26;93575.50;;;-1.50;100.00
70559;BME280;58108;48.094;11.838;2024-02-26T03:58:52;93578.16;;;-1.24;100.00
70559;BME280;58108;48.094;11.838;2024-02-26T04:01:17;93577.09;;;-1.07;100.00
70559;BME280;58108;48.094;11.838;2024-02-26T04:03:43;93580.81;;;-1.11;100.00
70559;BME280;58108;48.094;11.838;2024-02-26T04:06:09;93576.00;;;-1.03;100.00
70559;BME280;58108;48.094;11.838;2024-02-26T04:08:40;93593.06;;;-1.02;100.00
70559;BME280;58108;48.094;11.838;2024-02-26T04:11:06;93580.94;;;-1.00;100.00
70559;BME280;58108;48.094;11.838;2024-02-26T04:13:36;93577.38;;;-0.84;100.00
70559;BME280;58108;48.094;11.838;2024-02-26T04:16:06;93576.19;;;-1.06;100.00
70559;BME280;58108;48.094;11.838;2024-02-26T04:18:32;93579.47;;;-1.31;100.00
70559;BME280;58108;48.094;11.838;2024-02-26T04:20:58;93581.19;;;-1.45;100.00
70559;BME280;58108;48.094;11.838;2024-02-26T04:23:24;93583.63;;;-1.43;100.00
70559;BME280;58108;48.094;11.838;2024-02-26T04:25:50;93591.03;;;-1.39;100.00
70559;BME280;58108;48.094;11.838;2024-02-26T04:28:16;93582.19;;;-1.47;100.00
70559;BME280;58108;48.094;11.838;2024-02-26T04:30:41;93589.75;;;-1.31;100.00
70559;BME280;58108;48.094;11.838;2024-02-26T04:33:07;93582.66;;;-1.28;100.00
70559;BME280;58108;48.094;11.838;2024-02-26T04:35:33;93587.38;;;-1.34;100.00
70559;BME280;58108;48.094;11.838;2024-02-26T04:38:00;93582.63;;;-1.41;100.00
70559;BME280;58108;48.094;11.838;2024-02-26T04:40:26;93577.19;;;-1.36;100.00
70559;BME280;58108;48.094;11.838;2024-02-26T04:42:51;93583.81;;;-1.32;100.00
70559;BME280;58108;48.094;11.838;2024-02-26T04:45:17;93582.66;;;-1.55;100.00
70559;BME280;58108;48.094;11.838;2024-02-26T04:47:42;93590.66;;;-1.32;100.00
70559;BME280;58108;48.094;11.838;2024-02-26T04:50:08;93599.25;;;-1.19;100.00
70559;BME280;58108;48.094;11.838;2024-02-26T04:52:34;93594.78;;;-1.02;100.00
70559;BME280;58108;48.094;11.838;2024-02-26T04:54:59;93595.88;;;-0.92;100.00
70559;BME280;58108;48.094;11.838;2024-02-26T04:57:25;93593.16;;;-1.03;100.00
70559;BME280;58108;48.094;11.838;2024-02-26T04:59:51;93594.94;;;-1.18;100.00
70559;BME280;58108;48.094;11.838;2024-02-26T05:02:17;93586.91;;;-0.99;100.00
70559;BME280;58108;48.094;11.838;2024-02-26T05:04:43;93597.13;;;-1.12;100.00
70559;BME280;58108;48.094;11.838;2024-02-26T05:07:09;93594.44;;;-1.11;100.00
70559;BME280;58108;48.094;11.838;2024-02-26T05:09:34;93600.31;;;-1.36;100.00
70559;BME280;58108;48.094;11.838;2024-02-26T05:12:00;93599.38;;;-1.35;100.00
70559;BME280;58108;48.094;11.838;2024-02-26T05:14:26;93603.28;;;-1.15;100.00
70559;BME280;58108;48.094;11.838;2024-02-26T05:16:51;93591.63;;;-1.48;100.00
70559;BME280;58108;48.094;11.838;2024-02-26T05:19:17;93585.47;;;-1.45;100.00
70559;BME280;58108;48.094;11.838;2024-02-26T05:21:42;93581.88;;;-1.28;100.00
70559;BME280;58108;48.094;11.838;2024-02-26T05:24:09;93588.44;;;-1.24;100.00
70559;BME280;58108;48.094;11.838;2024-02-26T05:26:35;93580.41;;;-0.51;100.00
70559;BME280;58108;48.094;11.838;2024-02-26T05:29:01;93581.13;;;-0.49;100.00
70559;BME280;58108;48.094;11.838;2024-02-26T05:31:27;93579.06;;;-0.57;100.00
70559;BME280;58108;48.094;11.838;2024-02-26T05:33:54;93581.72;;;-0.59;100.00
70559;BME280;58108;48.094;11.838;2024-02-26T05:36:23;93588.72;;;-0.61;100.00
70559;BME280;58108;48.094;11.838;2024-02-26T05:38:49;93591.69;;;-0.67;100.00
70559;BME280;58108;48.094;11.838;2024-02-26T05:41:16;93585.06;;;-0.84;100.00
70559;BME280;58108;48.094;11.838;2024-02-26T05:43:42;93590.81;;;-0.93;100.00
70559;BME280;58108;48.094;11.838;2024-02-26T05:46:07;93581.94;;;-0.75;100.00
70559;BME280;58108;48.094;11.838;2024-02-26T05:48:33;93585.84;;;-0.56;100.00
70559;BME280;58108;48.094;11.838;2024-02-26T05:50:59;93590.69;;;-0.38;100.00
70559;BME280;58108;48.094;11.838;2024-02-26T05:53:24;93587.94;;;-0.22;100.00
70559;BME280;58108;48.094;11.838;2024-02-26T05:55:50;93595.13;;;-0.53;100.00
70559;BME280;58108;48.094;11.838;2024-02-26T05:58:16;93598.22;;;-0.48;100.00
70559;BME280;58108;48.094;11.838;2024-02-26T06:00:42;93599.47;;;-0.41;100.00
70559;BME280;58108;48.094;11.838;2024-02-26T06:03:08;93602.75;;;-0.39;100.00
70559;BME280;58108;48.094;11.838;2024-02-26T06:05:33;93619.09;;;-0.27;100.00
70559;BME280;58108;48.094;11.838;2024-02-26T06:07:59;93620.97;;;-0.16;100.00
70559;BME280;58108;48.094;11.838;2024-02-26T06:10:25;93624.16;;;-0.25;100.00
70559;BME280;58108;48.094;11.838;2024-02-26T06:12:51;93621.06;;;-0.31;100.00
70559;BME280;58108;48.094;11.838;2024-02-26T06:15:16;93617.47;;;-0.02;100.00
70559;BME280;58108;48.094;11.838;2024-02-26T06:17:42;93624.47;;;0.09;100.00
70559;BME280;58108;48.094;11.838;2024-02-26T06:20:08;93621.56;;;0.01;100.00
70559;BME280;58108;48.094;11.838;2024-02-26T06:22:39;93632.09;;;-0.03;100.00
70559;BME280;58108;48.094;11.838;2024-02-26T06:25:05;93635.38;;;0.12;100.00
70559;BME280;58108;48.094;11.838;2024-02-26T06:27:31;93631.53;;;0.44;100.00
70559;BME280;58108;48.094;11.838;2024-02-26T06:29:56;93625.16;;;0.37;100.00
70559;BME280;58108;48.094;11.838;2024-02-26T06:32:22;93637.81;;;0.53;99.52
70559;BME280;58108;48.094;11.838;2024-02-26T06:34:48;93639.03;;;0.60;99.02
70559;BME280;58108;48.094;11.838;2024-02-26T06:37:14;93642.50;;;0.97;97.40
70559;BME280;58108;48.094;11.838;2024-02-26T06:39:39;93640.25;;;0.92;98.27
70559;BME280;58108;48.094;11.838;2024-02-26T06:42:05;93646.97;;;1.19;96.30
70559;BME280;58108;48.094;11.838;2024-02-26T06:44:30;93647.25;;;1.27;96.00
70559;BME280;58108;48.094;11.838;2024-02-26T06:46:59;93643.91;;;1.38;94.89
70559;BME280;58108;48.094;11.838;2024-02-26T06:49:25;93645.69;;;1.49;93.62
70559;BME280;58108;48.094;11.838;2024-02-26T06:51:51;93648.09;;;1.28;94.83
70559;BME280;58108;48.094;11.838;2024-02-26T06:54:17;93651.88;;;1.35;95.38
70559;BME280;58108;48.094;11.838;2024-02-26T06:56:43;93659.31;;;1.51;94.19
70559;BME280;58108;48.094;11.838;2024-02-26T06:59:08;93663.59;;;1.75;92.99
70559;BME280;58108;48.094;11.838;2024-02-26T07:01:34;93669.59;;;1.87;91.44
70559;BME280;58108;48.094;11.838;2024-02-26T07:03:59;93678.97;;;1.76;92.29
70559;BME280;58108;48.094;11.838;2024-02-26T07:06:27;93680.88;;;1.86;92.18
70559;BME280;58108;48.094;11.838;2024-02-26T07:08:52;93673.13;;;1.86;93.43
70559;BME280;58108;48.094;11.838;2024-02-26T07:11:18;93673.88;;;1.99;91.72
70559;BME280;58108;48.094;11.838;2024-02-26T07:13:47;93674.72;;;2.11;91.12
70559;BME280;58108;48.094;11.838;2024-02-26T07:16:15;93675.56;;;2.12;90.65
70559;BME280;58108;48.094;11.838;2024-02-26T07:18:41;93683.09;;;2.26;92.01
70559;BME280;58108;48.094;11.838;2024-02-26T07:21:06;93681.34;;;2.50;91.57
70559;BME280;58108;48.094;11.838;2024-02-26T07:23:32;93673.59;;;2.61;90.21
70559;BME280;58108;48.094;11.838;2024-02-26T07:25:58;93683.22;;;2.70;90.16
70559;BME280;58108;48.094;11.838;2024-02-26T07:28:24;93677.13;;;2.83;88.05
70559;BME280;58108;48.094;11.838;2024-02-26T07:30:50;93684.19;;;2.81;89.78
70559;BME280;58108;48.094;11.838;2024-02-26T07:33:15;93682.41;;;2.81;86.65
70559;BME280;58108;48.094;11.838;2024-02-26T07:35:41;93682.03;;;2.97;85.92
70559;BME280;58108;48.094;11.838;2024-02-26T07:38:06;93686.16;;;3.00;86.66
70559;BME280;58108;48.094;11.838;2024-02-26T07:40:32;93675.81;;;2.89;86.92
70559;BME280;58108;48.094;11.838;2024-02-26T07:42:57;93672.66;;;2.96;84.68
70559;BME280;58108;48.094;11.838;2024-02-26T07:45:23;93673.44;;;3.08;83.90
70559;BME280;58108;48.094;11.838;2024-02-26T07:47:49;93681.94;;;3.43;81.57
70559;BME280;58108;48.094;11.838;2024-02-26T07:50:16;93678.69;;;3.62;77.25
70559;BME280;58108;48.094;11.838;2024-02-26T07:52:42;93689.44;;;3.58;78.83
70559;BME280;58108;48.094;11.838;2024-02-26T07:55:07;93684.81;;;3.61;78.07
70559;BME280;58108;48.094;11.838;2024-02-26T07:57:33;93684.97;;;3.81;78.58
70559;BME280;58108;48.094;11.838;2024-02-26T08:00:02;93696.94;;;3.93;75.31
70559;BME280;58108;48.094;11.838;2024-02-26T08:02:30;93704.69;;;3.93;76.85
70559;BME280;58108;48.094;11.838;2024-02-26T08:04:55;93705.00;;;4.00;75.07
70559;BME280;58108;48.094;11.838;2024-02-26T08:07:21;93715.22;;;4.13;77.05
70559;BME280;58108;48.094;11.838;2024-02-26T08:09:47;93718.97;;;4.30;77.09
70559;BME280;58108;48.094;11.838;2024-02-26T08:12:12;93715.88;;;4.36;76.14
70559;BME280;58108;48.094;11.838;2024-02-26T08:14:38;93712.72;;;4.33;75.68
70559;BME280;58108;48.094;11.838;2024-02-26T08:17:03;93725.84;;;4.31;77.54
70559;BME280;58108;48.094;11.838;2024-02-26T08:19:29;93736.31;;;4.51;75.89
70559;BME280;58108;48.094;11.838;2024-02-26T08:21:54;93732.00;;;4.61;75.08
70559;BME280;58108;48.094;11.838;2024-02-26T08:24:20;93730.78;;;4.65;75.57
70559;BME280;58108;48.094;11.838;2024-02-26T08:26:46;93730.22;;;4.83;76.72
70559;BME280;58108;48.094;11.838;2024-02-26T08:29:11;93724.28;;;5.02;77.01
70559;BME280;58108;48.094;11.838;2024-02-26T08:31:37;93722.66;;;5.11;74.64
70559;BME280;58108;48.094;11.838;2024-02-26T08:34:03;93714.38;;;5.27;75.06
70559;BME280;58108;48.094;11.838;2024-02-26T08:36:33;93711.25;;;5.33;73.85
70559;BME280;58108;48.094;11.838;2024-02-26T08:38:59;93703.22;;;5.46;73.01
70559;BME280;58108;48.094;11.838;2024-02-26T08:41:24;93701.59;;;5.55;71.47
70559;BME280;58108;48.094;11.838;2024-02-26T08:43:49;93709.78;;;5.60;71.25
70559;BME280;58108;48.094;11.838;2024-02-26T08:46:15;93721.00;;;5.51;71.50
70559;BME280;58108;48.094;11.838;2024-02-26T08:48:40;93710.06;;;5.47;72.48
70559;BME280;58108;48.094;11.838;2024-02-26T08:51:07;93712.63;;;5.28;71.54
70559;BME280;58108;48.094;11.838;2024-02-26T08:53:33;93708.09;;;5.20;72.89
70559;BME280;58108;48.094;11.838;2024-02-26T08:55:59;93710.25;;;5.15;72.68
70559;BME280;58108;48.094;11.838;2024-02-26T08:58:25;93713.00;;;5.23;71.71
70559;BME280;58108;48.094;11.838;2024-02-26T09:00:51;93721.50;;;5.25;72.02
70559;BME280;58108;48.094;11.838;2024-02-26T09:03:17;93717.97;;;5.46;71.26
70559;BME280;58108;48.094;11.838;2024-02-26T09:05:43;93715.53;;;5.64;71.43
70559;BME280;58108;48.094;11.838;2024-02-26T09:08:08;93715.31;;;5.77;70.11
70559;BME280;58108;48.094;11.838;2024-02-26T09:10:34;93710.09;;;5.87;71.78
70559;BME280;58108;48.094;11.838;2024-02-26T09:12:59;93711.63;;;6.09;70.90
70559;BME280;58108;48.094;11.838;2024-02-26T09:15:25;93715.16;;;5.98;69.09
70559;BME280;58108;48.094;11.838;2024-02-26T09:17:50;93711.06;;;5.86;68.13
70559;BME280;58108;48.094;11.838;2024-02-26T09:20:17;93712.41;;;5.80;68.24
70559;BME280;58108;48.094;11.838;2024-02-26T09:22:47;93717.75;;;5.88;69.13
70559;BME280;58108;48.094;11.838;2024-02-26T09:25:13;93726.81;;;6.04;70.68
70559;BME280;58108;48.094;11.838;2024-02-26T09:27:42;93726.50;;;6.47;65.40
70559;BME280;58108;48.094;11.838;2024-02-26T09:30:12;93727.28;;;6.67;63.58
70559;BME280;58108;48.094;11.838;2024-02-26T09:32:38;93725.78;;;6.64;64.23
70559;BME280;58108;48.094;11.838;2024-02-26T09:35:07;93734.03;;;6.50;64.39
70559;BME280;58108;48.094;11.838;2024-02-26T09:37:33;93738.78;;;6.74;66.00
70559;BME280;58108;48.094;11.838;2024-02-26T09:39:59;93740.69;;;6.82;66.05
70559;BME280;58108;48.094;11.838;2024-02-26T09:42:30;93744.16;;;7.01;65.28
70559;BME280;58108;48.094;11.838;2024-02-26T09:45:00;93746.25;;;6.87;63.63
70559;BME280;58108;48.094;11.838;2024-02-26T09:47:31;93740.78;;;6.90;62.84
70559;BME280;58108;48.094;11.838;2024-02-26T09:49:59;93736.38;;;7.01;63.22
70559;BME280;58108;48.094;11.838;2024-02-26T09:52:28;93740.41;;;7.23;63.26
70559;BME280;58108;48.094;11.838;2024-02-26T09:54:56;93747.19;;;7.06;62.59
70559;BME280;58108;48.094;11.838;2024-02-26T09:57:22;93744.69;;;7.42;61.69
70559;BME280;58108;48.094;11.838;2024-02-26T09:59:51;93748.97;;;7.61;60.03
70559;BME280;58108;48.094;11.838;2024-02-26T10:02:19;93753.25;;;7.80;61.09
70559;BME280;58108;48.094;11.838;2024-02-26T10:04:46;93748.72;;;7.83;60.18
70559;BME280;58108;48.094;11.838;2024-02-26T10:07:13;93742.31;;;7.49;59.99
70559;BME280;58108;48.094;11.838;2024-02-26T10:09:39;93737.94;;;7.49;60.67
70559;BME280;58108;48.094;11.838;2024-02-26T10:12:07;93735.72;;;7.27;61.40
70559;BME280;58108;48.094;11.838;2024-02-26T10:14:33;93734.91;;;7.26;62.00
70559;BME280;58108;48.094;11.838;2024-02-26T10:16:59;93732.91;;;7.38;60.68
70559;BME280;58108;48.094;11.838;2024-02-26T10:19:29;93734.38;;;7.50;61.25
70559;BME280;58108;48.094;11.838;2024-02-26T10:22:00;93731.28;;;7.37;63.40
70559;BME280;58108;48.094;11.838;2024-02-26T10:24:29;93727.03;;;7.36;61.78
70559;BME280;58108;48.094;11.838;2024-02-26T10:26:56;93726.25;;;7.53;60.82
70559;BME280;58108;48.094;11.838;2024-02-26T10:29:24;93725.94;;;7.38;61.91
70559;BME280;58108;48.094;11.838;2024-02-26T10:31:53;93717.38;;;7.74;59.91
70559;BME280;58108;48.094;11.838;2024-02-26T10:34:19;93718.88;;;7.49;59.75
70559;BME280;58108;48.094;11.838;2024-02-26T10:36:45;93709.69;;;7.27;60.72
70559;BME280;58108;48.094;11.838;2024-02-26T10:39:12;93714.81;;;7.36;61.23
70559;BME280;58108;48.094;11.838;2024-02-26T10:41:40;93709.44;;;7.48;60.21
70559;BME280;58108;48.094;11.838;2024-02-26T10:44:09;93707.97;;;7.63;60.11
70559;BME280;58108;48.094;11.838;2024-02-26T10:46:37;93713.13;;;8.10;58.50
70559;BME280;58108;48.094;11.838;2024-02-26T10:49:02;93697.91;;;8.23;57.51
70559;BME280;58108;48.094;11.838;2024-02-26T10:51:30;93701.31;;;8.42;56.99
70559;BME280;58108;48.094;11.838;2024-02-26T10:53:57;93703.56;;;8.37;57.37
70559;BME280;58108;48.094;11.838;2024-02-26T10:56:25;93703.00;;;8.69;56.98
70559;BME280;58108;48.094;11.838;2024-02-26T10:58:52;93697.88;;;8.41;57.61
70559;BME280;58108;48.094;11.838;2024-02-26T11:01:18;93704.00;;;9.03;55.00
70559;BME280;58108;48.094;11.838;2024-02-26T11:03:48;93694.59;;;9.62;55.90
70559;BME280;58108;48.094;11.838;2024-02-26T11:06:15;93685.09;;;9.61;54.12
70559;BME280;58108;48.094;11.838;2024-02-26T11:08:41;93691.66;;;9.65;52.25
70559;BME280;58108;48.094;11.838;2024-02-26T11:11:07;93685.84;;;10.04;51.29
70559;BME280;58108;48.094;11.838;2024-02-26T11:13:33;93690.44;;;10.35;49.57
70559;BME280;58108;48.094;11.838;2024-02-26T11:16:00;93681.75;;;10.10;49.11
70559;BME280;58108;48.094;11.838;2024-02-26T11:18:29;93689.28;;;10.55;49.63
70559;BME280;58108;48.094;11.838;2024-02-26T11:20:55;93690.56;;;10.84;50.66
70559;BME280;58108;48.094;11.838;2024-02-26T11:23:23;93686.63;;;10.96;48.19
70559;BME280;58108;48.094;11.838;2024-02-26T11:25:53;93689.63;;;10.18;52.21
70559;BME280;58108;48.094;11.838;2024-02-26T11:28:21;93699.25;;;9.84;51.78
70559;BME280;58108;48.094;11.838;2024-02-26T11:30:49;93706.53;;;9.73;53.40
70559;BME280;58108;48.094;11.838;2024-02-26T11:33:15;93712.56;;;9.56;55.54
70559;BME280;58108;48.094;11.838;2024-02-26T11:35:41;93715.97;;;9.57;54.35
70559;BME280;58108;48.094;11.838;2024-02-26T11:38:07;93720.59;;;9.71;50.73
70559;BME280;58108;48.094;11.838;2024-02-26T11:40:33;93719.66;;;9.89;47.15
70559;BME280;58108;48.094;11.838;2024-02-26T11:43:04;93726.06;;;10.03;46.92
70559;BME280;58108;48.094;11.838;2024-02-26T11:48:04;93720.06;;;10.61;46.49
70559;BME280;58108;48.094;11.838;2024-02-26T11:50:38;93714.00;;;12.28;44.84
70559;BME280;58108;48.094;11.838;2024-02-26T11:53:27;93704.31;;;14.03;44.50
70559;BME280;58108;48.094;11.838;2024-02-26T11:56:12;93703.69;;;14.01;40.52
70559;BME280;58108;48.094;11.838;2024-02-26T11:58:41;93695.97;;;14.86;38.39
70559;BME280;58108;48.094;11.838;2024-02-26T12:04:05;93702.13;;;15.00;38.11
70559;BME280;58108;48.094;11.838;2024-02-26T12:06:33;93709.97;;;14.00;37.78
70559;BME280;58108;48.094;11.838;2024-02-26T12:09:05;93711.31;;;15.04;36.00
70559;BME280;58108;48.094;11.838;2024-02-26T12:11:31;93711.50;;;16.56;34.03
70559;BME280;58108;48.094;11.838;2024-02-26T12:13:56;93703.94;;;18.00;33.83
70559;BME280;58108;48.094;11.838;2024-02-26T12:16:38;93706.38;;;18.72;31.22
70559;BME280;58108;48.094;11.838;2024-02-26T12:19:05;93699.47;;;17.94;31.65
70559;BME280;58108;48.094;11.838;2024-02-26T12:21:36;93689.84;;;19.03;31.55
70559;BME280;58108;48.094;11.838;2024-02-26T12:24:15;93680.69;;;20.84;28.34
70559;BME280;58108;48.094;11.838;2024-02-26T12:26:43;93678.06;;;20.96;28.96
70559;BME280;58108;48.094;11.838;2024-02-26T12:29:10;93678.75;;;20.06;29.07
70559;BME280;58108;48.094;11.838;2024-02-26T12:31:36;93685.50;;;18.83;29.38
70559;BME280;58108;48.094;11.838;2024-02-26T12:34:04;93684.41;;;20.95;28.62
70559;BME280;58108;48.094;11.838;2024-02-26T12:36:29;93679.31;;;20.39;29.38
70559;BME280;58108;48.094;11.838;2024-02-26T12:38:55;93676.56;;;19.65;27.64
70559;BME280;58108;48.094;11.838;2024-02-26T12:41:21;93678.13;;;19.10;27.64
70559;BME280;58108;48.094;11.838;2024-02-26T12:43:47;93675.47;;;19.54;27.08
70559;BME280;58108;48.094;11.838;2024-02-26T12:46:13;93686.03;;;20.11;28.85
70559;BME280;58108;48.094;11.838;2024-02-26T12:48:43;93689.28;;;21.45;26.36
70559;BME280;58108;48.094;11.838;2024-02-26T12:51:12;93683.91;;;19.82;26.03